Alert Bay, Canada
Current Conditions -  °F | °C
As of 1:12 PM on Tuesday 27 Jan 2015 (Local Time) from CYZT Reporting Station
Rain Showers Rain Showers  
Wind Chill: 44°   Ceiling: 3900
Heat Index: 46°   Visibility: 20mi
Dew Point: 43°   Wind: 6mph
Humidity: 87%   Direction: 270°W
Pressure: 30.15"   Gusts: NA
Location:  50.58°N, 126.92°W
Report Text: CYZT 272112Z 27005KT 220V290 20SM -SHRA SCT023 BKN039 08/06 A3015 RMK SC3SC4 SLP209
Loading
Personal Weather Stations






























Interactive Weather Map New forecast layout! Learn more

10-Day Weather Forecast

Advertisements
Track Severe Weather on mobile